createdAt,value
2019-04-21T00:02:39.708Z,9.50
2019-04-21T00:08:12.816Z,9.57
2019-04-21T00:12:56.120Z,11.20
2019-04-21T00:17:56.048Z,13.67
2019-04-21T00:23:10.213Z,13.57
2019-04-21T00:28:16.914Z,13.30
2019-04-21T00:33:09.067Z,14.07
2019-04-21T00:38:31.162Z,13.23
2019-04-21T00:43:25.278Z,13.07
2019-04-21T00:48:34.420Z,13.87
2019-04-21T00:53:53.486Z,12.73
2019-04-21T00:58:49.995Z,12.27
2019-04-21T01:03:51.971Z,12.93
2019-04-21T01:08:48.919Z,12.60
2019-04-21T01:14:00.634Z,13.23
2019-04-21T01:18:57.725Z,12.83
2019-04-21T01:23:42.268Z,12.47
2019-04-21T01:29:00.179Z,12.43
2019-04-21T01:34:08.814Z,11.27
2019-04-21T01:39:14.933Z,12.43
2019-04-21T01:44:23.863Z,12.37
2019-04-21T01:49:11.454Z,13.30
2019-04-21T01:54:45.545Z,11.80
2019-04-21T01:59:35.575Z,11.93
2019-04-21T02:04:57.568Z,13.27
2019-04-21T02:09:50.723Z,12.30
2019-04-21T02:15:06.367Z,11.50
2019-04-21T02:19:56.127Z,11.83
2019-04-21T02:25:10.846Z,9.93
2019-04-21T02:30:12.183Z,9.07
2019-04-21T02:35:30.720Z,9.27
2019-04-21T02:50:31.842Z,9.87
2019-04-21T02:55:28.831Z,8.43
2019-04-21T03:00:55.540Z,9.33
2019-04-21T03:16:22.997Z,10.63
2019-04-21T03:26:27.476Z,10.03
2019-04-21T03:37:00.401Z,11.47
2019-04-21T03:41:44.019Z,10.57
2019-04-21T03:46:41.319Z,10.93
2019-04-21T03:51:49.920Z,10.90
2019-04-21T03:57:06.061Z,10.47
2019-04-21T04:02:06.533Z,10.53
2019-04-21T04:07:39.738Z,9.93
2019-04-21T04:12:30.074Z,10.20
2019-04-21T04:27:53.135Z,8.57
2019-04-21T04:43:00.102Z,10.87
2019-04-21T04:47:58.366Z,9.53
2019-04-21T04:53:07.422Z,9.80
2019-04-21T05:03:14.939Z,9.27
2019-04-21T05:08:31.617Z,10.00
2019-04-21T05:13:21.428Z,9.80
2019-04-21T05:18:28.290Z,10.97
2019-04-21T05:23:11.765Z,10.87
2019-04-21T05:28:12.473Z,10.60
2019-04-21T05:33:34.367Z,10.47
2019-04-21T05:38:50.548Z,10.23
2019-04-21T05:43:51.670Z,11.17
2019-04-21T05:49:04.550Z,13.37
2019-04-21T05:54:14.753Z,13.47
2019-04-21T05:59:07.956Z,12.00
2019-04-21T06:04:16.856Z,12.67
2019-04-21T06:09:19.036Z,11.93
2019-04-21T06:14:25.147Z,11.87
2019-04-21T06:19:30.654Z,10.97
2019-04-21T06:24:33.804Z,11.60
2019-04-21T06:29:31.510Z,12.10
2019-04-21T06:34:51.776Z,12.27
2019-04-21T06:39:54.045Z,10.87
2019-04-21T06:44:51.232Z,11.13
2019-04-21T06:49:45.667Z,10.80
2019-04-21T06:54:46.902Z,10.77
2019-04-21T06:59:51.251Z,11.57
2019-04-21T07:04:54.853Z,10.90
2019-04-21T07:15:19.793Z,9.17
2019-04-21T07:20:07.194Z,8.93
2019-04-21T07:25:10.530Z,8.40
2019-04-21T07:30:12.947Z,8.63
2019-04-21T07:35:15.041Z,9.13
2019-04-21T07:40:15.136Z,8.80
2019-04-21T07:45:20.602Z,8.57
2019-04-21T07:50:35.202Z,8.07
2019-04-21T07:55:33.962Z,7.30
2019-04-21T08:00:51.467Z,7.90
2019-04-21T08:05:47.199Z,6.77
2019-04-21T08:10:47.148Z,6.50
2019-04-21T08:15:52.993Z,5.30
2019-04-21T08:20:53.372Z,4.97
2019-04-21T08:31:01.401Z,4.70
2019-04-21T08:36:17.727Z,5.10
2019-04-21T08:41:08.178Z,4.95
2019-04-21T08:46:13.889Z,5.90
2019-04-21T08:51:30.239Z,6.22
2019-04-21T08:56:40.129Z,3.75
2019-04-21T09:01:50.759Z,3.37
2019-04-21T09:11:59.730Z,3.60
2019-04-21T09:16:56.403Z,4.95
2019-04-21T09:22:20.799Z,5.45
2019-04-21T09:27:03.500Z,6.33
2019-04-21T09:31:55.824Z,5.22
2019-04-21T09:37:13.989Z,4.58
2019-04-21T09:42:02.821Z,2.77
2019-04-21T09:47:05.154Z,3.00
2019-04-21T09:52:15.099Z,3.65
2019-04-21T09:57:24.380Z,6.70
2019-04-21T10:02:18.231Z,2.77
2019-04-21T10:07:26.378Z,2.62
2019-04-21T10:12:20.564Z,7.25
2019-04-21T10:17:29.650Z,4.08
2019-04-21T10:22:31.217Z,2.58
2019-04-21T10:27:32.803Z,4.72
2019-04-21T10:32:36.421Z,3.52
2019-04-21T11:32:47.791Z,2.70
2019-04-21T11:37:50.317Z,2.95
2019-04-21T11:42:53.560Z,2.47
2019-04-21T11:48:18.684Z,3.05
2019-04-21T11:53:21.047Z,2.60
2019-04-21T11:58:23.659Z,2.60
2019-04-21T12:03:25.443Z,2.60
2019-04-21T12:08:34.353Z,2.58
2019-04-21T12:13:32.088Z,2.50
2019-04-21T12:18:34.064Z,2.45
2019-04-21T12:23:36.472Z,3.05
2019-04-21T12:28:39.699Z,2.27
2019-04-21T12:34:07.893Z,3.50
2019-04-21T12:39:12.804Z,2.20
2019-04-21T12:44:14.918Z,2.40
2019-04-21T12:49:17.649Z,2.05
2019-04-21T12:54:19.717Z,2.12
2019-04-21T12:59:21.356Z,2.10
2019-04-21T13:04:23.855Z,2.10
2019-04-21T13:09:28.459Z,2.33
2019-04-21T13:14:29.624Z,2.17
2019-04-21T13:19:31.549Z,2.05
2019-04-21T13:24:33.686Z,2.02
2019-04-21T13:29:36.446Z,1.60
2019-04-21T13:34:38.176Z,1.82
2019-04-21T13:40:20.687Z,2.00
2019-04-21T13:45:02.967Z,1.85
2019-04-21T13:50:07.160Z,1.95
2019-04-21T13:55:09.635Z,2.02
2019-04-21T14:00:13.246Z,2.20
2019-04-21T14:05:15.879Z,1.87
2019-04-21T14:10:18.054Z,2.00
2019-04-21T14:15:20.304Z,1.70
2019-04-21T14:20:22.074Z,1.77
2019-04-21T14:25:23.933Z,1.98
2019-04-21T14:30:26.279Z,1.70
2019-04-21T14:35:29.370Z,2.08
2019-04-21T14:40:33.347Z,1.72
2019-04-21T14:45:46.001Z,1.55
2019-04-21T14:50:55.282Z,1.62
2019-04-21T14:55:57.485Z,1.85
2019-04-21T15:01:02.072Z,1.60
2019-04-21T15:06:05.412Z,1.70
2019-04-21T15:11:08.609Z,1.67
2019-04-21T15:16:11.032Z,1.70
2019-04-21T15:21:13.325Z,1.90
2019-04-21T15:26:15.054Z,1.60
2019-04-21T15:31:23.890Z,1.52
2019-04-21T15:36:20.992Z,2.15
2019-04-21T15:41:22.740Z,1.60
2019-04-21T15:46:24.869Z,1.55
2019-04-21T15:51:26.483Z,1.62
2019-04-21T15:56:35.059Z,1.65
2019-04-21T16:01:48.445Z,1.85
2019-04-21T16:06:50.086Z,1.90
2019-04-21T16:11:51.706Z,2.08
2019-04-21T16:16:53.715Z,1.50
2019-04-21T16:21:56.743Z,1.75
2019-04-21T16:27:02.824Z,1.98
2019-04-21T16:32:02.124Z,2.52
2019-04-21T16:37:03.913Z,2.52
2019-04-21T16:42:08.307Z,2.10
2019-04-21T16:47:09.700Z,2.83
2019-04-21T16:52:20.856Z,2.27
2019-04-21T16:57:28.030Z,1.98
2019-04-21T17:02:30.386Z,1.95
2019-04-21T17:07:32.429Z,2.30
2019-04-21T17:12:35.554Z,2.02
2019-04-21T17:17:59.989Z,2.30
2019-04-21T17:22:41.734Z,2.50
2019-04-21T17:27:44.870Z,2.92
2019-04-21T17:32:49.766Z,3.10
2019-04-21T17:37:50.215Z,2.15
2019-04-21T17:43:01.547Z,2.22
2019-04-21T17:48:01.298Z,2.30
2019-04-21T17:53:10.589Z,2.52
2019-04-21T17:58:22.070Z,2.47
2019-04-21T18:03:43.643Z,3.15
2019-04-21T18:08:38.715Z,2.90
2019-04-21T18:13:22.995Z,2.70
2019-04-21T18:18:23.534Z,3.00
2019-04-21T18:23:42.883Z,3.30
2019-04-21T18:28:35.008Z,3.45
2019-04-21T18:33:42.218Z,3.42
2019-04-21T18:39:10.257Z,4.03
2019-04-21T18:44:28.172Z,4.35
2019-04-21T18:49:11.419Z,4.53
2019-04-21T18:54:37.119Z,3.00
2019-04-21T18:59:31.510Z,3.10
2019-04-21T19:04:29.340Z,5.17
2019-04-21T19:14:52.114Z,4.35
2019-04-21T19:20:04.693Z,3.00
2019-04-21T19:24:59.766Z,3.10
2019-04-21T19:30:23.381Z,2.60
2019-04-21T19:34:49.690Z,2.95
2019-04-21T19:40:03.594Z,3.70
2019-04-21T19:45:11.878Z,4.75
2019-04-21T19:50:15.828Z,4.60
2019-04-21T19:55:02.384Z,6.62
2019-04-21T20:00:07.446Z,5.00
2019-04-21T20:05:13.592Z,4.78
2019-04-21T20:10:32.808Z,5.47
2019-04-21T20:15:41.537Z,4.87
2019-04-21T20:20:21.273Z,6.12
2019-04-21T20:25:24.949Z,5.95
2019-04-21T20:30:42.292Z,5.37
2019-04-21T20:35:57.218Z,4.60
2019-04-21T20:40:41.267Z,4.10
2019-04-21T20:45:59.353Z,3.83
2019-04-21T20:51:03.187Z,3.70
2019-04-21T20:55:58.203Z,3.70
2019-04-21T21:01:22.545Z,4.60
2019-04-21T21:06:03.742Z,3.62
2019-04-21T21:11:08.008Z,4.17
2019-04-21T21:16:20.151Z,4.20
2019-04-21T21:21:20.728Z,4.10
2019-04-21T21:26:25.329Z,4.30
2019-04-21T21:31:35.086Z,5.53
2019-04-21T21:36:31.792Z,9.37
2019-04-21T21:41:26.557Z,10.97
2019-04-21T21:46:42.713Z,8.23
2019-04-21T21:51:48.408Z,5.53
2019-04-21T21:56:32.578Z,4.58
2019-04-21T22:01:39.869Z,6.17
2019-04-21T22:06:47.140Z,5.30
2019-04-21T22:11:42.204Z,4.27
2019-04-21T22:17:00.989Z,4.30
2019-04-21T22:22:07.727Z,4.50
2019-04-21T22:26:52.475Z,4.10
2019-04-21T22:32:01.377Z,3.97
2019-04-21T22:37:14.343Z,4.10
2019-04-21T22:42:11.158Z,4.60
2019-04-21T22:47:12.072Z,3.97
2019-04-21T22:52:15.134Z,4.10
2019-04-21T22:57:17.652Z,4.20
2019-04-21T23:02:22.639Z,3.83
2019-04-21T23:07:24.339Z,4.13
2019-04-21T23:12:31.164Z,4.63
2019-04-21T23:17:50.748Z,3.93
2019-04-21T23:23:00.849Z,4.57
2019-04-21T23:27:56.191Z,4.20
2019-04-21T23:32:50.438Z,4.17
2019-04-21T23:37:51.959Z,3.73
2019-04-21T23:42:47.244Z,4.00
2019-04-21T23:48:05.013Z,3.90
2019-04-21T23:52:53.321Z,3.90
2019-04-21T23:58:02.320Z,4.23
